Time;durP1;ratioP1;P1;durP2;ratioP2;P2;SDS_P1;SDS_P2;PMS_P1;PMS_P2;Temp;Humidity;BMP_temperature;BMP_pressure;BME280_temperature;BME280_humidity;BME280_pressure;Samples;Min_cycle;Max_cycle;Signal;HPM_P1;HPM_P2
2022/08/07 00:01:35;;;;;;;6.70;2.10;;;;;;;16.41;61.91;102575.66;5296713;28;20027;-71
2022/08/07 00:04:07;;;;;;;4.60;2.00;;;;;;;16.56;61.60;102571.25;5297999;28;20488;-71
2022/08/07 00:06:39;;;;;;;7.77;2.50;;;;;;;16.56;61.54;102573.91;5297218;28;20022;-71
2022/08/07 00:09:10;;;;;;;4.17;2.17;;;;;;;16.52;61.78;102577.69;5298242;28;20462;-71
2022/08/07 00:11:41;;;;;;;4.47;2.37;;;;;;;16.32;62.72;102579.66;5297266;28;20040;-71
2022/08/07 00:14:12;;;;;;;4.73;2.50;;;;;;;16.32;62.38;102568.22;5297092;28;20023;-71
2022/08/07 00:16:44;;;;;;;3.43;2.20;;;;;;;16.41;62.20;102570.38;5296931;28;20008;-72
2022/08/07 00:19:15;;;;;;;4.17;2.33;;;;;;;16.32;62.60;102568.22;5297444;28;20032;-72
2022/08/07 00:21:46;;;;;;;5.27;2.07;;;;;;;16.23;62.61;102566.13;5297631;28;20103;-71
2022/08/07 00:24:18;;;;;;;5.13;2.40;;;;;;;16.12;63.70;102558.81;5297371;28;20024;-71
2022/08/07 00:26:51;;;;;;;5.97;2.50;;;;;;;16.05;64.03;102566.22;5297376;28;20024;-71
2022/08/07 00:29:25;;;;;;;7.60;2.17;;;;;;;15.99;63.96;102551.56;5296688;28;20031;-71
2022/08/07 00:31:58;;;;;;;5.20;2.22;;;;;;;15.86;64.93;102556.66;5297091;28;20541;-71
2022/08/07 00:34:29;;;;;;;7.33;2.53;;;;;;;15.90;64.67;102557.34;5296888;28;20127;-71
2022/08/07 00:37:02;;;;;;;4.90;2.57;;;;;;;15.64;65.41;102549.06;5297070;28;20063;-71
2022/08/07 00:39:34;;;;;;;4.73;2.67;;;;;;;15.71;64.78;102540.69;5278601;28;20268;-71
2022/08/07 00:42:05;;;;;;;5.37;2.37;;;;;;;15.68;65.83;102542.66;5297373;28;20024;-71
2022/08/07 00:44:36;;;;;;;6.03;2.33;;;;;;;15.80;65.20;102543.75;5277635;28;20028;-71
2022/08/07 00:47:08;;;;;;;4.10;2.50;;;;;;;15.99;64.28;102543.63;5297356;28;20031;-71
2022/08/07 00:49:39;;;;;;;7.17;2.40;;;;;;;15.96;64.74;102531.44;5278618;28;20032;-71
2022/08/07 00:52:10;;;;;;;4.50;2.50;;;;;;;15.68;65.27;102535.59;5297226;28;20028;-71
2022/08/07 00:54:42;;;;;;;5.13;2.53;;;;;;;16.02;64.63;102543.47;5296247;28;20024;-71
2022/08/07 00:57:14;;;;;;;4.47;2.83;;;;;;;15.64;65.44;102541.97;5296469;28;20464;-73
2022/08/07 00:59:46;;;;;;;3.97;2.70;;;;;;;15.62;65.88;102533.31;5277957;28;20028;-71
2022/08/07 01:02:18;;;;;;;6.00;2.53;;;;;;;15.85;65.27;102534.66;5296451;28;20112;-71
2022/08/07 01:04:50;;;;;;;6.67;2.70;;;;;;;15.47;66.14;102527.03;5296612;28;20032;-71
2022/08/07 01:07:22;;;;;;;5.13;2.70;;;;;;;15.80;65.61;102526.13;5296338;28;20027;-71
2022/08/07 01:09:53;;;;;;;7.33;3.50;;;;;;;15.61;66.12;102523.66;5277983;28;20062;-71
2022/08/07 01:12:25;;;;;;;4.43;2.50;;;;;;;15.51;66.74;102525.09;5278143;28;20031;-71
2022/08/07 01:14:58;;;;;;;5.57;3.00;;;;;;;15.40;66.76;102521.25;5295747;28;20059;-71
2022/08/07 01:17:31;;;;;;;4.00;2.95;;;;;;;15.24;67.99;102529.97;5295830;28;20039;-71
2022/08/07 01:20:12;;;;;;;8.00;3.20;;;;;;;15.42;67.38;102523.81;5296465;28;20468;-71
2022/08/07 01:22:45;;;;;;;5.97;2.93;;;;;;;15.34;67.64;102519.78;5295927;28;20024;-71
2022/08/07 01:25:17;;;;;;;6.10;3.07;;;;;;;15.46;67.39;102518.25;5296060;28;20032;-71
2022/08/07 01:27:49;;;;;;;4.63;2.97;;;;;;;15.21;68.19;102527.50;5296545;28;20046;-70
2022/08/07 01:30:23;;;;;;;8.13;3.60;;;;;;;15.24;68.03;102519.44;5294911;28;20095;-71
2022/08/07 01:32:54;;;;;;;6.55;3.40;;;;;;;15.50;67.14;102508.38;5296512;28;20051;-71
2022/08/07 01:35:25;;;;;;;5.10;3.10;;;;;;;15.26;68.24;102505.28;5296030;28;20016;-70
2022/08/07 01:37:57;;;;;;;5.17;3.10;;;;;;;15.19;68.33;102505.63;5296197;28;20020;-70
2022/08/07 01:40:29;;;;;;;5.30;3.23;;;;;;;15.27;68.46;102512.28;5295656;28;20067;-70
2022/08/07 01:43:00;;;;;;;5.50;3.37;;;;;;;15.19;68.95;102510.03;5296335;28;20043;-70
2022/08/07 01:45:32;;;;;;;4.47;3.23;;;;;;;15.13;68.88;102511.25;5294974;28;20068;-70
2022/08/07 01:48:03;;;;;;;4.87;3.30;;;;;;;14.98;69.44;102507.59;5296200;28;20561;-70
2022/08/07 01:50:36;;;;;;;7.37;3.80;;;;;;;14.90;70.47;102515.06;5295831;28;20024;-71
2022/08/07 01:53:09;;;;;;;4.70;3.50;;;;;;;14.66;71.37;102513.56;5277853;28;20050;-69
2022/08/07 01:55:48;;;;;;;4.07;3.20;;;;;;;15.00;69.88;102508.38;5295691;28;20044;-70
2022/08/07 01:58:21;;;;;;;5.27;3.27;;;;;;;15.07;69.70;102506.25;5296021;28;20013;-70
2022/08/07 02:01:01;;;;;;;4.93;3.70;;;;;;;15.11;69.35;102498.09;5295119;28;20492;-70
2022/08/07 02:03:34;;;;;;;11.63;4.07;;;;;;;15.05;69.92;102508.13;5295619;28;20492;-70
2022/08/07 02:06:09;;;;;;;8.07;3.67;;;;;;;14.72;70.88;102505.34;5295984;28;20031;-70
2022/08/07 02:08:43;;;;;;;4.33;3.70;;;;;;;14.99;69.89;102504.88;5295807;28;20032;-70
2022/08/07 02:11:14;;;;;;;6.83;3.70;;;;;;;15.10;69.36;102500.81;5295449;28;20115;-71
2022/08/07 02:13:47;;;;;;;6.93;3.53;;;;;;;14.98;69.74;102507.59;5294867;28;20505;-71
2022/08/07 02:16:23;;;;;;;4.70;3.57;;;;;;;15.05;69.91;102510.75;5261138;28;20058;-70
2022/08/07 02:18:55;;;;;;;9.20;3.93;;;;;;;14.76;70.68;102498.13;5295627;28;20043;-70
2022/08/07 02:21:26;;;;;;;5.57;3.73;;;;;;;14.81;70.31;102490.88;5295770;28;20599;-70
2022/08/07 02:23:59;;;;;;;5.93;3.60;;;;;;;14.71;71.06;102495.75;5295614;28;20028;-70
2022/08/07 02:26:32;;;;;;;7.23;4.10;;;;;;;14.82;70.84;102497.00;5295751;28;20377;-70
2022/08/07 02:29:05;;;;;;;5.63;3.90;;;;;;;14.87;70.38;102500.25;5295477;28;20503;-70
2022/08/07 02:31:37;;;;;;;4.80;3.72;;;;;;;14.86;70.22;102490.63;5281317;28;20536;-71
2022/08/07 02:34:09;;;;;;;5.80;3.93;;;;;;;14.64;71.34;102494.34;5299640;28;20085;-70
2022/08/07 02:36:41;;;;;;;6.63;4.03;;;;;;;14.30;72.67;102496.88;5299217;28;20036;-71
2022/08/07 02:39:14;;;;;;;8.63;4.50;;;;;;;14.37;72.64;102492.16;5299688;28;20479;-71
2022/08/07 02:41:47;;;;;;;5.53;3.50;;;;;;;14.33;73.05;102490.63;5299439;28;20101;-71
2022/08/07 02:44:20;;;;;;;4.27;3.43;;;;;;;14.56;71.68;102486.81;5298460;28;20026;-70
2022/08/07 02:46:53;;;;;;;6.07;3.60;;;;;;;14.57;71.62;102488.53;5299562;28;20668;-71
2022/08/07 02:49:24;;;;;;;5.67;3.87;;;;;;;14.51;71.91;102487.06;5298831;28;20472;-71
2022/08/07 02:52:00;;;;;;;5.60;4.37;;;;;;;14.68;71.64;102489.78;5299669;28;20113;-71
2022/08/07 02:54:34;;;;;;;7.10;4.00;;;;;;;14.24;73.73;102482.22;5280669;28;20012;-71
2022/08/07 02:57:09;;;;;;;6.03;3.70;;;;;;;14.57;71.98;102479.75;5299600;28;20026;-71
2022/08/07 02:59:45;;;;;;;4.87;3.50;;;;;;;14.25;74.03;102478.66;5297876;28;20024;-71
2022/08/07 03:02:18;;;;;;;8.30;5.17;;;;;;;14.21;73.62;102479.75;5298705;28;20073;-70
2022/08/07 03:04:52;;;;;;;7.20;4.60;;;;;;;14.23;73.51;102477.88;5299416;28;20024;-71
2022/08/07 03:07:25;;;;;;;6.50;4.13;;;;;;;14.12;73.63;102483.69;5298818;28;20126;-71
2022/08/07 03:09:58;;;;;;;10.53;4.33;;;;;;;14.08;73.92;102476.00;5298988;28;20178;-71
2022/08/07 03:12:31;;;;;;;6.17;3.70;;;;;;;13.90;74.36;102475.97;5298441;28;20032;-70
2022/08/07 03:15:04;;;;;;;8.27;4.17;;;;;;;13.86;75.02;102482.31;5297896;28;20109;-71
2022/08/07 03:17:37;;;;;;;7.95;4.22;;;;;;;13.74;75.98;102479.31;5298884;28;20020;-71
2022/08/07 03:20:09;;;;;;;6.60;4.50;;;;;;;14.14;74.34;102480.97;5298755;28;20106;-71
2022/08/07 03:22:41;;;;;;;6.83;4.10;;;;;;;13.81;75.09;102472.00;5298702;28;20202;-71
2022/08/07 03:25:13;;;;;;;13.17;5.33;;;;;;;13.85;75.64;102480.59;5298511;28;20497;-71
2022/08/07 03:27:47;;;;;;;6.07;4.00;;;;;;;13.87;75.37;102476.13;5298718;28;20030;-72
2022/08/07 03:30:19;;;;;;;4.78;3.72;;;;;;;13.78;75.84;102478.28;5297417;28;20384;-71
2022/08/07 03:32:52;;;;;;;6.60;4.27;;;;;;;13.65;76.50;102479.75;5298265;28;20542;-71
2022/08/07 03:35:26;;;;;;;8.37;3.97;;;;;;;13.96;75.03;102483.59;5279906;28;20024;-71
2022/08/07 03:38:07;;;;;;;4.80;3.85;;;;;;;13.88;75.52;102476.03;5298432;28;20031;-71
2022/08/07 03:40:39;;;;;;;9.63;5.03;;;;;;;13.71;76.89;102476.84;5297401;28;20119;-71
2022/08/07 03:43:10;;;;;;;6.13;4.30;;;;;;;13.64;76.84;102472.78;5298170;28;20031;-71
2022/08/07 03:45:42;;;;;;;5.73;4.00;;;;;;;14.01;74.72;102476.31;5297052;28;20028;-70
2022/08/07 03:48:14;;;;;;;6.87;4.30;;;;;;;14.00;74.60;102479.84;5279768;28;20035;-72
2022/08/07 03:50:47;;;;;;;5.57;4.27;;;;;;;13.62;76.49;102479.91;5279950;28;20027;-71
2022/08/07 03:53:18;;;;;;;5.97;4.73;;;;;;;13.53;76.89;102479.41;5298078;28;20028;-71
2022/08/07 03:55:50;;;;;;;5.03;4.30;;;;;;;13.53;77.33;102492.56;5297960;28;20032;-71
2022/08/07 03:58:22;;;;;;;7.40;4.23;;;;;;;13.57;77.07;102479.25;5297972;28;20028;-71
2022/08/07 04:00:56;;;;;;;7.20;4.50;;;;;;;13.78;75.47;102483.53;5297393;28;20439;-71
2022/08/07 04:03:28;;;;;;;6.63;4.60;;;;;;;13.43;76.94;102475.47;5297616;28;20496;-71
2022/08/07 04:05:59;;;;;;;5.83;4.43;;;;;;;13.50;77.17;102487.41;5298321;28;20101;-71
2022/08/07 04:08:31;;;;;;;5.70;4.20;;;;;;;13.56;77.78;102488.97;5298116;28;20073;-71
2022/08/07 04:11:03;;;;;;;7.93;4.67;;;;;;;13.64;76.92;102489.44;5297749;28;20546;-71
2022/08/07 04:13:35;;;;;;;10.83;4.77;;;;;;;13.30;78.83;102493.56;5297383;28;20405;-71
2022/08/07 04:16:06;;;;;;;6.23;4.80;;;;;;;13.45;78.18;102489.41;5298161;28;20016;-71
2022/08/07 04:18:38;;;;;;;6.60;4.63;;;;;;;13.52;77.63;102496.13;5279585;28;20067;-71
2022/08/07 04:21:09;;;;;;;6.10;4.73;;;;;;;13.75;76.03;102488.09;5297943;28;20099;-71
2022/08/07 04:23:41;;;;;;;8.53;5.03;;;;;;;13.60;77.35;102487.00;5279727;28;20031;-71
2022/08/07 04:26:13;;;;;;;5.20;4.53;;;;;;;13.65;76.80;102495.53;5297931;28;20024;-71
2022/08/07 04:28:45;;;;;;;6.97;4.97;;;;;;;13.41;78.57;102493.09;5278789;28;20384;-72
2022/08/07 04:31:16;;;;;;;7.27;5.13;;;;;;;13.34;79.21;102496.94;5297369;28;20031;-72
2022/08/07 04:33:48;;;;;;;7.93;5.17;;;;;;;13.30;79.18;102501.47;5297795;28;20027;-72
2022/08/07 04:36:19;;;;;;;5.60;4.53;;;;;;;13.58;77.14;102509.94;5297539;28;20111;-71
2022/08/07 04:38:50;;;;;;;6.93;4.40;;;;;;;13.38;78.35;102501.13;5297706;28;20063;-71
2022/08/07 04:41:22;;;;;;;6.37;4.93;;;;;;;13.39;78.68;102502.84;5297102;28;20048;-71
2022/08/07 04:43:54;;;;;;;7.00;4.70;;;;;;;13.59;77.74;102496.72;5296815;28;20020;-71
2022/08/07 04:46:41;;;;;;;7.20;4.80;;;;;;;13.57;77.94;102498.56;5296772;28;20115;-71
2022/08/07 04:49:40;;;;;;;8.87;5.00;;;;;;;13.70;77.48;102500.63;5297421;28;20028;-71
2022/08/07 04:52:25;;;;;;;7.77;4.87;;;;;;;13.71;77.35;102505.81;5296108;28;20510;-71
2022/08/07 04:55:12;;;;;;;8.03;4.90;;;;;;;13.82;77.04;102509.72;5278726;28;20024;-71
2022/08/07 04:58:03;;;;;;;7.53;5.27;;;;;;;13.83;76.60;102511.41;5296761;28;20028;-73
2022/08/07 05:00:54;;;;;;;5.50;4.63;;;;;;;13.76;77.08;102503.81;5295690;28;20028;-71
2022/08/07 05:03:56;;;;;;;6.57;4.37;;;;;;;13.71;77.75;102504.94;5297001;28;20032;-70
2022/08/07 05:06:48;;;;;;;7.00;4.80;;;;;;;13.69;77.58;102505.03;5296715;28;20503;-71
2022/08/07 05:09:26;;;;;;;7.60;5.13;;;;;;;13.76;77.89;102509.09;5296487;28;20032;-70
2022/08/07 05:12:01;;;;;;;9.37;5.30;;;;;;;13.79;77.86;102519.47;5279462;28;20502;-71
2022/08/07 05:14:37;;;;;;;8.23;5.53;;;;;;;13.72;78.16;102517.22;5295420;28;20395;-70
2022/08/07 05:17:12;;;;;;;10.57;5.40;;;;;;;13.58;79.28;102515.22;5296376;28;20024;-71
2022/08/07 05:19:48;;;;;;;10.33;5.53;;;;;;;13.55;80.09;102516.19;5295894;28;20031;-71
2022/08/07 05:22:22;;;;;;;8.83;5.87;;;;;;;13.60;79.18;102516.81;5296081;28;20028;-70
2022/08/07 05:24:56;;;;;;;7.68;6.18;;;;;;;13.53;80.17;102515.41;5278374;28;20027;-71
2022/08/07 05:27:29;;;;;;;8.65;5.40;;;;;;;13.65;79.98;102521.88;5296134;28;20034;-71
2022/08/07 05:30:01;;;;;;;9.63;5.50;;;;;;;13.57;80.55;102521.38;5295460;28;20024;-71
2022/08/07 05:32:33;;;;;;;7.30;5.90;;;;;;;13.61;80.22;102517.69;5295912;28;20119;-71
2022/08/07 05:35:07;;;;;;;11.63;6.30;;;;;;;13.61;80.72;102520.31;5296375;28;20098;-70
2022/08/07 05:37:39;;;;;;;5.63;5.13;;;;;;;13.79;79.67;102523.88;5277535;28;20035;-71
2022/08/07 05:40:12;;;;;;;6.97;5.20;;;;;;;13.94;79.13;102526.72;5296339;28;20778;-71
2022/08/07 05:42:45;;;;;;;8.73;6.97;;;;;;;13.89;80.44;102529.56;5277637;28;20020;-73
2022/08/07 05:45:19;;;;;;;8.05;5.85;;;;;;;14.01;79.42;102534.28;5295153;28;20027;-71
2022/08/07 05:47:52;;;;;;;10.93;6.95;;;;;;;13.91;79.96;102519.84;5296322;28;20040;-71
2022/08/07 05:50:24;;;;;;;7.33;6.60;;;;;;;14.01;79.32;102526.38;5278346;28;20020;-70
2022/08/07 05:52:56;;;;;;;10.17;7.30;;;;;;;14.08;79.24;102520.78;5296023;28;20035;-71
2022/08/07 05:55:29;;;;;;;10.37;7.40;;;;;;;13.95;80.13;102524.00;5296114;28;20032;-71
2022/08/07 05:58:01;;;;;;;10.53;7.40;;;;;;;13.92;81.39;102526.78;5295903;28;20032;-70
2022/08/07 06:00:35;;;;;;;9.97;7.90;;;;;;;14.09;79.14;102528.63;5295374;28;20028;-71
2022/08/07 06:03:08;;;;;;;15.05;8.02;;;;;;;14.10;79.75;102540.84;5297116;28;20047;-70
2022/08/07 06:05:41;;;;;;;7.93;7.13;;;;;;;14.01;81.27;102534.28;5281688;28;20058;-70
2022/08/07 06:08:17;;;;;;;8.50;7.43;;;;;;;14.15;80.02;102535.38;5300523;28;20126;-71
2022/08/07 06:10:49;;;;;;;9.43;7.10;;;;;;;14.18;79.72;102545.78;5300135;28;20059;-71
2022/08/07 06:13:21;;;;;;;10.47;7.10;;;;;;;14.20;80.02;102537.78;5299124;28;20472;-71
2022/08/07 06:15:54;;;;;;;9.87;8.57;;;;;;;14.25;79.30;102539.28;5299810;28;20043;-70
2022/08/07 06:18:26;;;;;;;9.30;7.77;;;;;;;14.24;79.74;102542.81;5300180;28;20469;-71
2022/08/07 06:21:03;;;;;;;11.70;8.23;;;;;;;14.25;79.93;102536.66;5299925;28;20027;-71
2022/08/07 06:23:34;;;;;;;10.40;8.70;;;;;;;14.24;79.73;102534.09;5299782;28;20024;-70
2022/08/07 06:26:10;;;;;;;9.50;7.93;;;;;;;14.30;80.03;102538.19;5300005;28;20023;-71
2022/08/07 06:28:49;;;;;;;9.03;8.10;;;;;;;14.40;80.29;102544.72;5298927;28;20020;-70
2022/08/07 06:31:20;;;;;;;9.13;8.23;;;;;;;14.40;79.14;102545.56;5299283;28;20566;-71
2022/08/07 06:33:51;;;;;;;10.60;8.10;;;;;;;14.41;80.37;102546.44;5299936;28;20031;-70
2022/08/07 06:36:25;;;;;;;9.57;8.13;;;;;;;14.43;80.76;102539.31;5299191;28;20496;-70
2022/08/07 06:38:57;;;;;;;9.35;8.45;;;;;;;14.57;79.30;102543.03;5299698;28;20032;-71
2022/08/07 06:42:00;;;;;;;9.63;7.77;;;;;;;14.68;78.42;102543.34;5299076;28;20071;-71
2022/08/07 06:44:33;;;;;;;10.20;7.77;;;;;;;14.57;78.91;102541.28;5292205;28;20412;-71
2022/08/07 06:47:05;;;;;;;10.40;8.20;;;;;;;14.68;78.42;102543.34;5299500;28;20048;-71
2022/08/07 06:49:36;;;;;;;10.40;8.57;;;;;;;14.70;78.24;102527.44;5298988;28;20098;-70
2022/08/07 06:52:10;;;;;;;11.60;8.97;;;;;;;14.87;77.60;102529.28;5299602;28;20032;-71
2022/08/07 06:54:42;;;;;;;11.27;7.78;;;;;;;14.87;77.91;102531.91;5281219;28;20028;-70
2022/08/07 06:57:14;;;;;;;15.60;8.63;;;;;;;14.82;78.13;102518.09;5298877;28;20077;-73
2022/08/07 06:59:46;;;;;;;10.33;8.40;;;;;;;15.03;77.22;102531.13;5298065;28;20023;-71
2022/08/07 07:02:20;;;;;;;11.70;8.70;;;;;;;15.11;75.99;102518.38;5299242;28;20036;-71
2022/08/07 07:04:51;;;;;;;12.85;9.45;;;;;;;15.12;76.35;102513.00;5299038;28;20110;-71
2022/08/07 07:07:23;;;;;;;12.27;8.53;;;;;;;15.20;76.61;102503.84;5299025;28;20119;-71
2022/08/07 07:09:54;;;;;;;13.50;7.87;;;;;;;15.35;75.48;102518.00;5298628;28;20111;-71
2022/08/07 07:12:49;;;;;;;9.90;8.03;;;;;;;15.46;74.84;102523.53;5299047;28;20032;-71
2022/08/07 07:15:28;;;;;;;11.03;9.07;;;;;;;15.62;74.08;102522.75;5296792;28;20039;-71
2022/08/07 07:18:15;;;;;;;10.70;8.40;;;;;;;15.88;74.03;102524.88;5298733;28;20033;-71
2022/08/07 07:21:00;;;;;;;14.07;8.40;;;;;;;16.14;71.77;102533.16;5298948;28;20032;-71
2022/08/07 07:23:32;;;;;;;;;;;;;;;16.48;71.16;102525.91;5280792;28;20092;-71
2022/08/07 07:26:06;;;;;;;10.33;7.97;;;;;;;16.75;68.36;102527.00;5298503;28;20011;-70
2022/08/07 07:28:43;;;;;;;10.13;7.33;;;;;;;17.05;66.68;102518.19;5297640;28;20182;-71
2022/08/07 07:31:26;;;;;;;9.37;7.57;;;;;;;17.44;65.95;102517.66;5279694;28;20040;-71
2022/08/07 07:34:03;;;;;;;14.20;8.27;;;;;;;17.82;64.12;102510.84;5298693;28;20526;-71
2022/08/07 07:36:38;;;;;;;10.13;7.20;;;;;;;18.33;63.01;102510.19;5297966;28;20027;-71
2022/08/07 07:39:11;;;;;;;9.30;7.67;;;;;;;18.77;60.12;102512.59;5298184;28;20039;-70
2022/08/07 07:41:48;;;;;;;11.48;7.35;;;;;;;19.54;58.60;102509.97;5297776;28;20079;-71
2022/08/07 07:44:20;;;;;;;10.50;7.70;;;;;;;20.07;56.35;102507.03;5297311;28;20043;-71
2022/08/07 07:46:54;;;;;;;9.97;7.00;;;;;;;20.82;54.36;102497.06;5298183;28;20039;-70
2022/08/07 07:49:27;;;;;;;8.20;6.25;;;;;;;21.72;51.75;102497.97;5298351;28;21207;-71
2022/08/07 07:52:01;;;;;;;8.70;7.78;;;;;;;21.83;50.30;102504.28;5297973;28;20107;-71
2022/08/07 07:54:34;;;;;;;11.65;7.03;;;;;;;22.44;48.73;102501.94;5297710;28;20123;-71
2022/08/07 07:57:07;;;;;;;8.90;6.55;;;;;;;22.94;47.74;102487.03;5297940;28;20024;-71
2022/08/07 07:59:40;;;;;;;6.53;5.88;;;;;;;23.62;46.96;102487.38;5278947;28;20046;-71
2022/08/07 08:02:13;;;;;;;8.48;6.20;;;;;;;23.75;45.43;102489.81;5297883;28;20032;-71
2022/08/07 08:04:45;;;;;;;11.35;6.13;;;;;;;24.39;44.71;102492.91;5298102;28;20062;-72
2022/08/07 08:07:17;;;;;;;8.32;5.35;;;;;;;25.11;42.79;102496.06;5297884;28;20504;-72
2022/08/07 08:09:52;;;;;;;7.00;4.97;;;;;;;25.42;42.21;102500.25;5297646;28;20024;-72
2022/08/07 08:12:24;;;;;;;6.53;5.28;;;;;;;26.00;40.64;102497.28;5279557;28;20469;-72
2022/08/07 08:14:55;;;;;;;6.97;4.95;;;;;;;26.06;38.95;102494.81;5296671;28;20115;-73
2022/08/07 08:17:33;;;;;;;6.07;4.85;;;;;;;26.07;39.00;102493.84;5297683;28;20654;-72
2022/08/07 08:20:07;;;;;;;6.70;4.85;;;;;;;26.02;38.70;102498.84;5297719;28;20102;-72
2022/08/07 08:28:26;;;;;;;8.10;4.22;;;;;;;27.05;36.74;102492.94;5296809;28;20412;-73
2022/08/07 08:31:00;;;;;;;5.30;4.35;;;;;;;27.17;37.72;102501.56;5297643;28;20042;-72
2022/08/07 08:33:35;;;;;;;5.07;4.05;;;;;;;28.30;35.66;102501.16;5279385;28;20088;-72
2022/08/07 08:36:09;;;;;;;4.45;3.55;;;;;;;28.22;35.28;102511.94;5279497;28;20059;-72
2022/08/07 08:38:43;;;;;;;4.50;3.10;;;;;;;27.98;33.67;102502.88;5297157;28;20023;-72
2022/08/07 08:41:24;;;;;;;4.80;2.80;;;;;;;28.24;34.97;102499.16;5297672;28;20044;-73
2022/08/07 08:44:07;;;;;;;5.53;3.60;;;;;;;29.43;34.00;102499.44;5296973;28;20103;-72
2022/08/07 08:46:49;;;;;;;3.38;2.95;;;;;;;29.45;33.76;102500.91;5297403;28;20024;-72
2022/08/07 08:49:49;;;;;;;6.07;3.08;;;;;;;29.92;34.31;102498.22;5297551;28;20487;-72
2022/08/07 08:52:31;;;;;;;4.43;2.90;;;;;;;30.23;32.00;102503.72;5296838;28;20081;-73
2022/08/07 08:55:18;;;;;;;7.72;2.67;;;;;;;30.65;31.15;102498.69;5297430;28;20059;-72
2022/08/07 08:58:11;;;;;;;3.72;2.38;;;;;;;30.62;32.20;102502.59;5296438;28;20024;-72
2022/08/07 09:00:50;;;;;;;2.90;2.60;;;;;;;30.62;30.91;102501.75;5296683;28;20495;-69
2022/08/07 09:03:51;;;;;;;3.33;2.67;;;;;;;31.35;31.26;102506.41;5278690;28;20069;-72
2022/08/07 09:06:49;;;;;;;3.92;2.70;;;;;;;32.09;29.51;102495.44;5259956;28;20040;-72
2022/08/07 09:09:36;;;;;;;4.90;2.83;;;;;;;31.70;29.49;102496.78;5296847;28;20024;-73
2022/08/07 09:12:13;;;;;;;6.57;2.65;;;;;;;32.53;28.25;102495.28;5296584;28;20094;-72
2022/08/07 09:15:00;;;;;;;3.25;2.35;;;;;;;32.88;27.54;102485.44;5295801;28;20024;-73
2022/08/07 09:17:56;;;;;;;7.55;2.83;;;;;;;32.77;27.90;102495.84;5296500;28;20028;-72
2022/08/07 09:20:58;;;;;;;5.68;2.65;;;;;;;32.75;27.92;102492.50;5278087;28;20032;-73
2022/08/07 09:23:55;;;;;;;5.50;2.72;;;;;;;32.73;26.96;102494.56;5261969;28;20032;-73
2022/08/07 09:26:59;;;;;;;4.82;3.17;;;;;;;33.51;24.13;102494.38;5296561;28;20039;-73
2022/08/07 09:29:45;;;;;;;6.63;2.70;;;;;;;34.05;24.71;102488.97;5250165;28;20044;-72
2022/08/07 09:32:55;;;;;;;4.43;2.88;;;;;;;34.40;25.21;102488.69;5296095;28;20081;-72
2022/08/07 09:35:29;;;;;;;4.63;2.30;;;;;;;33.54;23.91;102483.09;5295982;28;20115;-72
2022/08/07 09:38:06;;;;;;;7.13;3.08;;;;;;;32.79;24.83;102482.06;5277567;28;20109;-73
2022/08/07 09:40:56;;;;;;;5.07;2.30;;;;;;;33.58;24.83;102480.81;5295821;28;20045;-73
2022/08/07 09:43:55;;;;;;;3.55;2.20;;;;;;;34.45;23.86;102482.63;5295271;28;20514;-72
2022/08/07 09:47:04;;;;;;;6.57;2.00;;;;;;;35.04;24.08;102489.06;5295994;28;20058;-70
2022/08/07 09:50:02;;;;;;;6.75;2.55;;;;;;;35.31;23.37;102478.03;5295815;28;20508;-70
2022/08/07 09:52:43;;;;;;;6.53;1.90;;;;;;;34.98;22.73;102486.16;5277931;28;20044;-70
2022/08/07 09:55:28;;;;;;;2.53;1.90;;;;;;;35.21;22.41;102470.31;5296041;28;20508;-71
2022/08/07 09:58:28;;;;;;;4.00;2.15;;;;;;;35.15;23.07;102473.91;5276773;28;20020;-73
2022/08/07 10:01:17;;;;;;;4.85;1.90;;;;;;;35.03;21.58;102466.47;5296066;28;20075;-70
2022/08/07 10:04:23;;;;;;;2.47;1.63;;;;;;;36.00;21.50;102463.63;5296002;28;20035;-70
2022/08/07 10:07:47;;;;;;;2.45;1.75;;;;;;;36.19;22.50;102449.97;5296368;28;20039;-73
2022/08/07 10:10:35;;;;;;;3.90;2.17;;;;;;;36.38;21.31;102442.66;5209913;28;20029;-73
2022/08/07 10:13:48;;;;;;;4.53;2.60;;;;;;;34.92;22.42;102451.66;5294980;28;20392;-73
2022/08/07 10:16:44;;;;;;;4.43;2.20;;;;;;;35.46;22.40;102445.00;5222945;28;20476;-70
2022/08/07 10:19:37;;;;;;;3.95;2.20;;;;;;;35.42;21.78;102441.06;5277359;28;20491;-72
2022/08/07 10:22:17;;;;;;;2.63;2.10;;;;;;;35.41;22.00;102444.84;5296095;28;20472;-72
2022/08/07 10:24:54;;;;;;;3.40;2.00;;;;;;;34.93;21.29;102439.72;5296020;28;20046;-72
2022/08/07 10:28:04;;;;;;;4.10;2.13;;;;;;;35.71;21.59;102434.09;5276448;28;20031;-73
2022/08/07 10:30:57;;;;;;;4.05;1.90;;;;;;;35.96;21.19;102424.22;5292894;28;20040;-72
2022/08/07 10:33:33;;;;;;;4.13;2.20;;;;;;;36.37;20.69;102430.09;5295480;28;20369;-72
2022/08/07 10:36:42;;;;;;;3.10;2.22;;;;;;;36.32;21.52;102427.22;5295938;28;20039;-72
2022/08/07 10:39:32;;;;;;;5.18;2.50;;;;;;;36.08;21.08;102429.78;5277069;28;20111;-73
2022/08/07 10:42:19;;;;;;;2.15;1.67;;;;;;;35.29;21.38;102439.28;5277530;28;20054;-72
2022/08/07 10:45:17;;;;;;;2.03;1.58;;;;;;;37.10;19.97;102425.72;5294481;28;20035;-73
2022/08/07 10:47:57;;;;;;;3.83;2.53;;;;;;;36.71;20.06;102423.34;5295470;28;20388;-73
2022/08/07 10:50:44;;;;;;;3.13;1.80;;;;;;;36.22;20.24;102422.25;5296878;28;20028;-72
2022/08/07 10:53:31;;;;;;;3.35;2.13;;;;;;;37.38;19.72;102414.16;5299076;28;20059;-73
2022/08/07 10:56:35;;;;;;;5.65;2.03;;;;;;;36.80;19.77;102424.69;5299117;28;20032;-73
2022/08/07 10:59:42;;;;;;;3.50;2.10;;;;;;;36.29;20.66;102427.69;5289401;28;20374;-72
2022/08/07 11:02:51;;;;;;;4.30;2.00;;;;;;;37.11;19.74;102417.28;5298228;28;20388;-74
2022/08/07 11:06:07;;;;;;;2.90;2.38;;;;;;;36.03;19.95;102413.25;5298799;28;20035;-73
2022/08/07 11:08:47;;;;;;;2.50;1.75;;;;;;;35.35;20.35;102405.72;5277617;28;20093;-73
2022/08/07 11:11:24;;;;;;;3.45;1.50;;;;;;;36.04;19.74;102401.28;5298392;28;20127;-73
2022/08/07 11:14:19;;;;;;;2.55;1.85;;;;;;;35.62;20.74;102397.31;5279987;28;20210;-73
2022/08/07 11:16:58;;;;;;;1.65;1.50;;;;;;;35.39;19.14;102392.50;5298920;28;20048;-73
2022/08/07 11:19:43;;;;;;;3.17;1.83;;;;;;;35.57;19.64;102389.78;5280357;28;20054;-73
2022/08/07 11:22:25;;;;;;;2.45;1.50;;;;;;;34.74;20.13;102390.66;5298231;28;20082;-73
2022/08/07 11:25:10;;;;;;;3.70;1.58;;;;;;;34.62;21.21;102386.91;5299084;28;20111;-73
2022/08/07 11:27:44;;;;;;;2.75;1.63;;;;;;;34.23;21.16;102376.84;5279386;28;20058;-72
2022/08/07 11:30:19;;;;;;;2.47;1.60;;;;;;;33.01;20.83;102371.53;5280338;28;20051;-73
2022/08/07 11:33:32;;;;;;;2.65;1.55;;;;;;;34.80;20.76;102382.66;5298354;28;20032;-73
2022/08/07 11:36:17;;;;;;;3.22;1.77;;;;;;;34.50;20.26;102381.34;5270230;28;20156;-73
2022/08/07 11:39:01;;;;;;;2.70;1.50;;;;;;;33.47;21.68;102369.06;5298354;28;20161;-73
2022/08/07 11:41:41;;;;;;;2.25;1.60;;;;;;;32.95;20.99;102373.22;5298067;28;20439;-72
2022/08/07 11:44:21;;;;;;;3.42;1.60;;;;;;;32.88;20.61;102366.09;5279324;28;20020;-73
2022/08/07 11:46:55;;;;;;;3.00;1.70;;;;;;;32.03;21.67;102365.38;5297981;28;20020;-73
2022/08/07 11:49:45;;;;;;;2.00;1.52;;;;;;;33.10;21.46;102360.47;5298059;28;20136;-73
2022/08/07 11:52:52;;;;;;;4.28;1.48;;;;;;;33.28;20.92;102362.59;5298035;28;20035;-72
2022/08/07 11:55:53;;;;;;;3.25;1.50;;;;;;;32.65;21.48;102349.16;5279469;28;20043;-73
2022/08/07 11:58:39;;;;;;;3.10;1.70;;;;;;;32.96;20.75;102360.47;5297179;28;20550;-72
2022/08/07 12:01:29;;;;;;;2.25;1.50;;;;;;;32.53;20.97;102364.31;5297496;28;20093;-72
2022/08/07 12:04:19;;;;;;;3.08;1.77;;;;;;;33.18;20.42;102360.31;5297787;28;20143;-72
2022/08/07 12:07:04;;;;;;;3.38;1.65;;;;;;;32.61;20.85;102360.63;5280106;28;20035;-73
2022/08/07 12:09:49;;;;;;;3.78;1.70;;;;;;;32.03;22.48;102357.22;5279742;28;20055;-73
2022/08/07 12:12:36;;;;;;;3.95;1.70;;;;;;;31.70;22.94;102337.84;5296510;28;20075;-72
2022/08/07 12:15:19;;;;;;;2.85;1.80;;;;;;;32.09;23.20;102349.13;5297722;28;20089;-72
2022/08/07 12:18:11;;;;;;;;;;;;;;;32.95;21.97;102353.38;5298397;28;20034;-72
2022/08/07 12:21:20;;;;;;;4.35;1.77;;;;;;;32.26;22.76;102351.47;5297581;28;19912;-72
2022/08/07 12:24:07;;;;;;;4.03;1.88;;;;;;;31.26;23.49;102345.22;5297461;28;20484;-72